KHOB/HOB METAR and TAF weather

Enter ICAO airport designator
Station Type Date Time Source
KHOB METAR 2020/10/29 16:50 UTC NOAA

KHOB 291650Z 340/14G22KT 10SM SKC 12/01 A3035


Station Type Date Time Source
KHOB Decoded METAR 2020/10/29 16:50 UTC NOAA

Hobbs / Lea County, NM, United States (KHOB) 32-41N 103-13W
Oct 29, 2020 - 12:50 PM EDT / 2020.10.29 1650 UTC
Visibility: 10 mile(s):0
Sky conditions: clear
Temperature: 53 F (12 C)
Dew Point: 33 F (1 C)
Relative Humidity: 46%
Pressure (altimeter): 30.35 in. Hg (1027 hPa)
ob: KHOB 291650Z 340/14G22KT 10SM SKC 12/01 A3035
cycle: 17

Station Type Date Time Source
KHOB TAF 2020/10/29 18:20 UTC NOAA

TAF KHOB 291720Z 2918/3018 34014G22KT P6SM SKC
FM292000 35009KT P6SM SKC
FM300100 20007KT P6SM FEW250

Example: see airport list